sensor_id;sensor_type;location;lat;lon;timestamp;P1;durP1;ratioP1;P2;durP2;ratioP2
51224;SDS011;37298;42.688;23.312;2022-12-16T00:00:36;170.43;;;99.82;;
51224;SDS011;37298;42.688;23.312;2022-12-16T00:03:03;184.85;;;105.70;;
51224;SDS011;37298;42.688;23.312;2022-12-16T00:05:30;167.68;;;95.22;;
51224;SDS011;37298;42.688;23.312;2022-12-16T00:07:57;169.48;;;101.22;;
51224;SDS011;37298;42.688;23.312;2022-12-16T00:10:24;182.60;;;96.78;;
51224;SDS011;37298;42.688;23.312;2022-12-16T00:12:52;180.82;;;100.50;;
51224;SDS011;37298;42.688;23.312;2022-12-16T00:15:19;169.23;;;93.15;;
51224;SDS011;37298;42.688;23.312;2022-12-16T00:17:45;179.98;;;99.72;;
51224;SDS011;37298;42.688;23.312;2022-12-16T00:20:12;157.63;;;88.28;;
51224;SDS011;37298;42.688;23.312;2022-12-16T00:22:39;166.52;;;100.40;;
51224;SDS011;37298;42.688;23.312;2022-12-16T00:25:06;180.38;;;106.13;;
51224;SDS011;37298;42.688;23.312;2022-12-16T00:27:33;178.65;;;104.53;;
51224;SDS011;37298;42.688;23.312;2022-12-16T00:30:02;169.40;;;100.30;;
51224;SDS011;37298;42.688;23.312;2022-12-16T00:32:29;167.60;;;95.72;;
51224;SDS011;37298;42.688;23.312;2022-12-16T00:34:56;178.00;;;102.00;;
51224;SDS011;37298;42.688;23.312;2022-12-16T00:37:23;163.80;;;96.65;;
51224;SDS011;37298;42.688;23.312;2022-12-16T00:42:18;175.95;;;95.53;;
51224;SDS011;37298;42.688;23.312;2022-12-16T00:44:45;172.80;;;96.55;;
51224;SDS011;37298;42.688;23.312;2022-12-16T00:47:13;158.15;;;88.32;;
51224;SDS011;37298;42.688;23.312;2022-12-16T00:49:39;186.45;;;97.47;;
51224;SDS011;37298;42.688;23.312;2022-12-16T00:52:07;175.35;;;99.97;;
51224;SDS011;37298;42.688;23.312;2022-12-16T00:54:34;183.27;;;90.20;;
51224;SDS011;37298;42.688;23.312;2022-12-16T00:57:01;167.05;;;93.30;;
51224;SDS011;37298;42.688;23.312;2022-12-16T00:59:28;167.55;;;90.65;;
51224;SDS011;37298;42.688;23.312;2022-12-16T01:01:55;174.65;;;91.18;;
51224;SDS011;37298;42.688;23.312;2022-12-16T01:04:24;175.47;;;93.27;;
51224;SDS011;37298;42.688;23.312;2022-12-16T01:06:52;174.93;;;93.03;;
51224;SDS011;37298;42.688;23.312;2022-12-16T01:09:19;177.73;;;92.35;;
51224;SDS011;37298;42.688;23.312;2022-12-16T01:11:46;165.38;;;84.78;;
51224;SDS011;37298;42.688;23.312;2022-12-16T01:14:13;163.65;;;87.25;;
51224;SDS011;37298;42.688;23.312;2022-12-16T01:16:40;171.55;;;90.28;;
51224;SDS011;37298;42.688;23.312;2022-12-16T01:19:07;166.85;;;86.72;;
51224;SDS011;37298;42.688;23.312;2022-12-16T01:21:35;175.73;;;89.32;;
51224;SDS011;37298;42.688;23.312;2022-12-16T01:24:02;168.98;;;86.25;;
51224;SDS011;37298;42.688;23.312;2022-12-16T01:26:29;190.60;;;87.53;;
51224;SDS011;37298;42.688;23.312;2022-12-16T01:28:57;192.32;;;97.65;;
51224;SDS011;37298;42.688;23.312;2022-12-16T01:31:23;189.15;;;88.40;;
51224;SDS011;37298;42.688;23.312;2022-12-16T01:33:50;186.82;;;88.40;;
51224;SDS011;37298;42.688;23.312;2022-12-16T01:36:17;178.60;;;85.75;;
51224;SDS011;37298;42.688;23.312;2022-12-16T01:38:46;212.23;;;87.90;;
51224;SDS011;37298;42.688;23.312;2022-12-16T01:41:13;204.55;;;91.20;;
51224;SDS011;37298;42.688;23.312;2022-12-16T01:43:41;252.15;;;95.28;;
51224;SDS011;37298;42.688;23.312;2022-12-16T01:46:08;224.15;;;90.07;;
51224;SDS011;37298;42.688;23.312;2022-12-16T01:48:40;215.70;;;91.00;;
51224;SDS011;37298;42.688;23.312;2022-12-16T01:51:08;217.02;;;89.15;;
51224;SDS011;37298;42.688;23.312;2022-12-16T01:53:37;253.07;;;96.22;;
51224;SDS011;37298;42.688;23.312;2022-12-16T01:56:06;374.80;;;108.43;;
51224;SDS011;37298;42.688;23.312;2022-12-16T01:58:34;273.42;;;103.00;;
51224;SDS011;37298;42.688;23.312;2022-12-16T02:01:01;233.17;;;90.07;;
51224;SDS011;37298;42.688;23.312;2022-12-16T02:03:29;201.02;;;85.28;;
51224;SDS011;37298;42.688;23.312;2022-12-16T02:05:57;247.20;;;85.45;;
51224;SDS011;37298;42.688;23.312;2022-12-16T02:08:24;220.52;;;87.38;;
51224;SDS011;37298;42.688;23.312;2022-12-16T02:10:55;186.18;;;84.28;;
51224;SDS011;37298;42.688;23.312;2022-12-16T02:13:30;189.40;;;84.35;;
51224;SDS011;37298;42.688;23.312;2022-12-16T02:16:00;175.15;;;73.05;;
51224;SDS011;37298;42.688;23.312;2022-12-16T02:18:35;189.68;;;78.90;;
51224;SDS011;37298;42.688;23.312;2022-12-16T02:24:00;184.68;;;75.57;;
51224;SDS011;37298;42.688;23.312;2022-12-16T02:29:23;169.38;;;71.55;;
51224;SDS011;37298;42.688;23.312;2022-12-16T02:31:59;209.65;;;77.38;;
51224;SDS011;37298;42.688;23.312;2022-12-16T02:34:29;192.70;;;76.10;;
51224;SDS011;37298;42.688;23.312;2022-12-16T02:37:00;172.07;;;73.70;;
51224;SDS011;37298;42.688;23.312;2022-12-16T02:39:31;200.75;;;79.97;;
51224;SDS011;37298;42.688;23.312;2022-12-16T02:42:01;175.30;;;75.45;;
51224;SDS011;37298;42.688;23.312;2022-12-16T02:44:33;243.50;;;80.93;;
51224;SDS011;37298;42.688;23.312;2022-12-16T02:47:03;161.45;;;74.45;;
51224;SDS011;37298;42.688;23.312;2022-12-16T02:49:46;121.10;;;62.05;;
51224;SDS011;37298;42.688;23.312;2022-12-16T02:52:14;140.90;;;67.45;;
51224;SDS011;37298;42.688;23.312;2022-12-16T02:54:41;131.03;;;61.97;;
51224;SDS011;37298;42.688;23.312;2022-12-16T02:57:12;132.50;;;61.23;;
51224;SDS011;37298;42.688;23.312;2022-12-16T02:59:42;167.38;;;66.18;;
51224;SDS011;37298;42.688;23.312;2022-12-16T03:02:15;152.38;;;66.43;;
51224;SDS011;37298;42.688;23.312;2022-12-16T03:04:45;127.13;;;61.45;;
51224;SDS011;37298;42.688;23.312;2022-12-16T03:07:14;140.40;;;61.92;;
51224;SDS011;37298;42.688;23.312;2022-12-16T03:09:42;134.80;;;63.60;;
51224;SDS011;37298;42.688;23.312;2022-12-16T03:12:11;146.55;;;65.75;;
51224;SDS011;37298;42.688;23.312;2022-12-16T03:14:40;137.13;;;62.65;;
51224;SDS011;37298;42.688;23.312;2022-12-16T03:17:07;123.20;;;58.53;;
51224;SDS011;37298;42.688;23.312;2022-12-16T03:19:36;137.07;;;64.10;;
51224;SDS011;37298;42.688;23.312;2022-12-16T03:22:05;129.18;;;61.90;;
51224;SDS011;37298;42.688;23.312;2022-12-16T03:24:34;121.32;;;59.03;;
51224;SDS011;37298;42.688;23.312;2022-12-16T03:27:04;125.10;;;60.58;;
51224;SDS011;37298;42.688;23.312;2022-12-16T03:29:35;133.10;;;62.78;;
51224;SDS011;37298;42.688;23.312;2022-12-16T03:32:04;116.55;;;59.10;;
51224;SDS011;37298;42.688;23.312;2022-12-16T03:37:01;96.47;;;48.83;;
51224;SDS011;37298;42.688;23.312;2022-12-16T03:39:28;90.03;;;48.00;;
51224;SDS011;37298;42.688;23.312;2022-12-16T03:41:56;97.90;;;49.53;;
51224;SDS011;37298;42.688;23.312;2022-12-16T03:44:24;92.18;;;50.67;;
51224;SDS011;37298;42.688;23.312;2022-12-16T03:46:51;100.38;;;54.58;;
51224;SDS011;37298;42.688;23.312;2022-12-16T03:49:18;102.75;;;52.80;;
51224;SDS011;37298;42.688;23.312;2022-12-16T03:51:44;109.72;;;52.05;;
51224;SDS011;37298;42.688;23.312;2022-12-16T03:54:13;97.30;;;51.08;;
51224;SDS011;37298;42.688;23.312;2022-12-16T03:56:40;99.05;;;52.40;;
51224;SDS011;37298;42.688;23.312;2022-12-16T03:59:07;101.72;;;51.25;;
51224;SDS011;37298;42.688;23.312;2022-12-16T04:01:35;100.53;;;50.35;;
51224;SDS011;37298;42.688;23.312;2022-12-16T04:04:03;97.70;;;50.23;;
51224;SDS011;37298;42.688;23.312;2022-12-16T04:06:30;86.68;;;47.05;;
51224;SDS011;37298;42.688;23.312;2022-12-16T04:08:56;90.13;;;47.08;;
51224;SDS011;37298;42.688;23.312;2022-12-16T04:11:25;89.43;;;45.00;;
51224;SDS011;37298;42.688;23.312;2022-12-16T04:14:09;83.47;;;44.55;;
51224;SDS011;37298;42.688;23.312;2022-12-16T04:16:53;82.97;;;44.83;;
51224;SDS011;37298;42.688;23.312;2022-12-16T04:19:38;87.28;;;45.40;;
51224;SDS011;37298;42.688;23.312;2022-12-16T04:22:23;74.15;;;40.47;;
51224;SDS011;37298;42.688;23.312;2022-12-16T04:25:10;77.88;;;41.33;;
51224;SDS011;37298;42.688;23.312;2022-12-16T04:27:40;70.43;;;38.45;;
51224;SDS011;37298;42.688;23.312;2022-12-16T04:30:11;66.30;;;38.35;;
51224;SDS011;37298;42.688;23.312;2022-12-16T04:32:44;58.33;;;34.28;;
51224;SDS011;37298;42.688;23.312;2022-12-16T04:35:29;64.32;;;36.28;;
51224;SDS011;37298;42.688;23.312;2022-12-16T04:38:13;60.63;;;35.78;;
51224;SDS011;37298;42.688;23.312;2022-12-16T04:40:57;63.85;;;34.85;;
51224;SDS011;37298;42.688;23.312;2022-12-16T04:43:43;55.20;;;31.65;;
51224;SDS011;37298;42.688;23.312;2022-12-16T04:46:27;58.83;;;34.33;;
51224;SDS011;37298;42.688;23.312;2022-12-16T04:49:11;60.45;;;34.88;;
51224;SDS011;37298;42.688;23.312;2022-12-16T04:51:55;59.83;;;34.05;;
51224;SDS011;37298;42.688;23.312;2022-12-16T04:54:39;62.55;;;34.40;;
51224;SDS011;37298;42.688;23.312;2022-12-16T04:57:24;67.90;;;36.90;;
51224;SDS011;37298;42.688;23.312;2022-12-16T05:00:10;63.40;;;36.17;;
51224;SDS011;37298;42.688;23.312;2022-12-16T05:02:55;69.88;;;37.97;;
51224;SDS011;37298;42.688;23.312;2022-12-16T05:05:39;59.97;;;35.25;;
51224;SDS011;37298;42.688;23.312;2022-12-16T05:08:24;60.03;;;34.80;;
51224;SDS011;37298;42.688;23.312;2022-12-16T05:11:08;63.03;;;36.75;;
51224;SDS011;37298;42.688;23.312;2022-12-16T05:14:03;63.35;;;35.67;;
51224;SDS011;37298;42.688;23.312;2022-12-16T05:16:49;60.20;;;34.55;;
51224;SDS011;37298;42.688;23.312;2022-12-16T05:19:34;63.20;;;36.47;;
51224;SDS011;37298;42.688;23.312;2022-12-16T05:22:18;64.63;;;34.50;;
51224;SDS011;37298;42.688;23.312;2022-12-16T05:25:02;60.33;;;34.03;;
51224;SDS011;37298;42.688;23.312;2022-12-16T05:27:49;53.60;;;31.75;;
51224;SDS011;37298;42.688;23.312;2022-12-16T05:30:33;60.53;;;33.03;;
51224;SDS011;37298;42.688;23.312;2022-12-16T05:33:18;56.35;;;32.95;;
51224;SDS011;37298;42.688;23.312;2022-12-16T05:36:03;57.20;;;33.15;;
51224;SDS011;37298;42.688;23.312;2022-12-16T05:38:48;56.53;;;32.42;;
51224;SDS011;37298;42.688;23.312;2022-12-16T05:41:32;69.20;;;36.67;;
51224;SDS011;37298;42.688;23.312;2022-12-16T05:44:28;59.08;;;34.00;;
51224;SDS011;37298;42.688;23.312;2022-12-16T05:47:12;60.42;;;33.65;;
51224;SDS011;37298;42.688;23.312;2022-12-16T05:49:58;57.15;;;31.92;;
51224;SDS011;37298;42.688;23.312;2022-12-16T05:52:47;58.88;;;32.17;;
51224;SDS011;37298;42.688;23.312;2022-12-16T05:55:31;57.80;;;33.03;;
51224;SDS011;37298;42.688;23.312;2022-12-16T05:58:15;67.63;;;40.17;;
51224;SDS011;37298;42.688;23.312;2022-12-16T06:01:00;56.35;;;31.95;;
51224;SDS011;37298;42.688;23.312;2022-12-16T06:03:44;51.70;;;32.40;;
51224;SDS011;37298;42.688;23.312;2022-12-16T06:06:30;56.45;;;32.95;;
51224;SDS011;37298;42.688;23.312;2022-12-16T06:09:23;67.38;;;38.25;;
51224;SDS011;37298;42.688;23.312;2022-12-16T06:12:07;67.45;;;36.35;;
51224;SDS011;37298;42.688;23.312;2022-12-16T06:14:51;58.03;;;33.95;;
51224;SDS011;37298;42.688;23.312;2022-12-16T06:17:32;61.47;;;35.60;;
51224;SDS011;37298;42.688;23.312;2022-12-16T06:20:16;64.82;;;34.80;;
51224;SDS011;37298;42.688;23.312;2022-12-16T06:23:01;60.90;;;35.00;;
51224;SDS011;37298;42.688;23.312;2022-12-16T06:25:45;70.25;;;38.30;;
51224;SDS011;37298;42.688;23.312;2022-12-16T06:28:30;56.35;;;32.72;;
51224;SDS011;37298;42.688;23.312;2022-12-16T06:31:14;64.32;;;35.33;;
51224;SDS011;37298;42.688;23.312;2022-12-16T06:33:59;60.60;;;34.67;;
51224;SDS011;37298;42.688;23.312;2022-12-16T06:36:44;56.17;;;30.92;;
51224;SDS011;37298;42.688;23.312;2022-12-16T06:39:29;60.55;;;33.92;;
51224;SDS011;37298;42.688;23.312;2022-12-16T06:42:25;74.28;;;38.85;;
51224;SDS011;37298;42.688;23.312;2022-12-16T06:45:09;65.97;;;33.50;;
51224;SDS011;37298;42.688;23.312;2022-12-16T06:47:53;66.22;;;32.72;;
51224;SDS011;37298;42.688;23.312;2022-12-16T06:50:38;69.07;;;35.45;;
51224;SDS011;37298;42.688;23.312;2022-12-16T06:53:22;74.90;;;37.63;;
51224;SDS011;37298;42.688;23.312;2022-12-16T06:56:07;63.30;;;31.00;;
51224;SDS011;37298;42.688;23.312;2022-12-16T06:58:52;76.32;;;35.33;;
51224;SDS011;37298;42.688;23.312;2022-12-16T07:01:36;72.35;;;37.13;;
51224;SDS011;37298;42.688;23.312;2022-12-16T07:04:21;65.25;;;35.70;;
51224;SDS011;37298;42.688;23.312;2022-12-16T07:07:05;77.50;;;37.47;;
51224;SDS011;37298;42.688;23.312;2022-12-16T07:09:50;77.70;;;34.72;;
51224;SDS011;37298;42.688;23.312;2022-12-16T07:12:35;73.32;;;37.88;;
51224;SDS011;37298;42.688;23.312;2022-12-16T07:15:19;77.68;;;41.00;;
51224;SDS011;37298;42.688;23.312;2022-12-16T07:18:04;100.05;;;49.10;;
51224;SDS011;37298;42.688;23.312;2022-12-16T07:20:48;76.55;;;40.85;;
51224;SDS011;37298;42.688;23.312;2022-12-16T07:23:33;88.50;;;40.08;;
51224;SDS011;37298;42.688;23.312;2022-12-16T07:26:17;96.05;;;43.63;;
51224;SDS011;37298;42.688;23.312;2022-12-16T07:29:03;89.25;;;42.08;;
51224;SDS011;37298;42.688;23.312;2022-12-16T07:31:48;91.35;;;40.78;;
51224;SDS011;37298;42.688;23.312;2022-12-16T07:34:32;89.85;;;41.25;;
51224;SDS011;37298;42.688;23.312;2022-12-16T07:37:16;95.00;;;43.10;;
51224;SDS011;37298;42.688;23.312;2022-12-16T07:40:01;83.72;;;39.25;;
51224;SDS011;37298;42.688;23.312;2022-12-16T07:42:45;89.90;;;41.78;;
51224;SDS011;37298;42.688;23.312;2022-12-16T07:45:31;102.80;;;46.00;;
51224;SDS011;37298;42.688;23.312;2022-12-16T07:48:15;102.85;;;43.42;;
51224;SDS011;37298;42.688;23.312;2022-12-16T07:51:00;107.80;;;50.15;;
51224;SDS011;37298;42.688;23.312;2022-12-16T07:53:44;137.88;;;57.80;;
51224;SDS011;37298;42.688;23.312;2022-12-16T07:56:28;188.50;;;58.15;;
51224;SDS011;37298;42.688;23.312;2022-12-16T07:59:13;104.38;;;42.45;;
51224;SDS011;37298;42.688;23.312;2022-12-16T08:02:00;117.97;;;52.05;;
51224;SDS011;37298;42.688;23.312;2022-12-16T08:04:45;108.15;;;41.58;;
51224;SDS011;37298;42.688;23.312;2022-12-16T08:07:29;108.22;;;45.92;;
51224;SDS011;37298;42.688;23.312;2022-12-16T08:10:13;90.45;;;38.35;;
51224;SDS011;37298;42.688;23.312;2022-12-16T08:12:58;109.03;;;41.80;;
51224;SDS011;37298;42.688;23.312;2022-12-16T08:15:45;100.40;;;44.60;;
51224;SDS011;37298;42.688;23.312;2022-12-16T08:18:31;104.05;;;45.38;;
51224;SDS011;37298;42.688;23.312;2022-12-16T08:21:15;100.50;;;40.08;;
51224;SDS011;37298;42.688;23.312;2022-12-16T08:23:59;92.65;;;37.03;;
51224;SDS011;37298;42.688;23.312;2022-12-16T08:26:43;93.18;;;41.17;;
51224;SDS011;37298;42.688;23.312;2022-12-16T08:29:29;94.53;;;42.10;;
51224;SDS011;37298;42.688;23.312;2022-12-16T08:32:21;79.00;;;38.03;;
51224;SDS011;37298;42.688;23.312;2022-12-16T08:35:07;78.38;;;38.95;;
51224;SDS011;37298;42.688;23.312;2022-12-16T08:37:53;81.65;;;39.70;;
51224;SDS011;37298;42.688;23.312;2022-12-16T08:40:40;80.97;;;38.30;;
51224;SDS011;37298;42.688;23.312;2022-12-16T08:43:24;88.18;;;36.42;;
51224;SDS011;37298;42.688;23.312;2022-12-16T08:46:08;75.30;;;35.03;;
51224;SDS011;37298;42.688;23.312;2022-12-16T08:48:53;84.30;;;38.92;;
51224;SDS011;37298;42.688;23.312;2022-12-16T08:51:38;74.85;;;36.78;;
51224;SDS011;37298;42.688;23.312;2022-12-16T08:54:22;74.38;;;37.67;;
51224;SDS011;37298;42.688;23.312;2022-12-16T08:57:07;84.85;;;37.90;;
51224;SDS011;37298;42.688;23.312;2022-12-16T08:59:51;82.18;;;38.63;;
51224;SDS011;37298;42.688;23.312;2022-12-16T09:02:35;80.90;;;39.67;;
51224;SDS011;37298;42.688;23.312;2022-12-16T09:05:19;66.63;;;34.30;;
51224;SDS011;37298;42.688;23.312;2022-12-16T09:08:05;66.05;;;33.40;;
51224;SDS011;37298;42.688;23.312;2022-12-16T09:10:52;67.15;;;35.92;;
51224;SDS011;37298;42.688;23.312;2022-12-16T09:13:37;64.88;;;33.38;;
51224;SDS011;37298;42.688;23.312;2022-12-16T09:16:21;60.72;;;34.10;;
51224;SDS011;37298;42.688;23.312;2022-12-16T09:19:06;57.53;;;30.52;;
51224;SDS011;37298;42.688;23.312;2022-12-16T09:21:50;65.05;;;33.83;;
51224;SDS011;37298;42.688;23.312;2022-12-16T09:24:35;60.05;;;30.50;;
51224;SDS011;37298;42.688;23.312;2022-12-16T09:27:19;62.08;;;32.83;;
51224;SDS011;37298;42.688;23.312;2022-12-16T09:30:06;48.15;;;27.85;;
51224;SDS011;37298;42.688;23.312;2022-12-16T09:32:51;48.53;;;27.88;;
51224;SDS011;37298;42.688;23.312;2022-12-16T09:35:35;50.10;;;27.33;;
51224;SDS011;37298;42.688;23.312;2022-12-16T09:38:19;45.60;;;26.30;;
51224;SDS011;37298;42.688;23.312;2022-12-16T09:41:16;42.63;;;25.40;;
51224;SDS011;37298;42.688;23.312;2022-12-16T09:44:01;44.70;;;26.70;;
51224;SDS011;37298;42.688;23.312;2022-12-16T09:46:49;46.33;;;29.23;;
51224;SDS011;37298;42.688;23.312;2022-12-16T09:49:40;46.47;;;28.50;;
51224;SDS011;37298;42.688;23.312;2022-12-16T09:52:25;61.40;;;32.50;;
51224;SDS011;37298;42.688;23.312;2022-12-16T09:55:15;55.15;;;33.70;;
51224;SDS011;37298;42.688;23.312;2022-12-16T09:58:02;59.00;;;36.47;;
51224;SDS011;37298;42.688;23.312;2022-12-16T10:00:46;70.40;;;44.13;;
51224;SDS011;37298;42.688;23.312;2022-12-16T10:03:33;73.63;;;45.53;;
51224;SDS011;37298;42.688;23.312;2022-12-16T10:06:23;67.38;;;44.28;;
51224;SDS011;37298;42.688;23.312;2022-12-16T10:09:11;74.22;;;45.75;;
51224;SDS011;37298;42.688;23.312;2022-12-16T10:12:02;76.97;;;46.05;;
51224;SDS011;37298;42.688;23.312;2022-12-16T10:14:50;72.53;;;46.90;;
51224;SDS011;37298;42.688;23.312;2022-12-16T10:17:39;75.65;;;45.65;;
51224;SDS011;37298;42.688;23.312;2022-12-16T10:20:29;70.35;;;44.90;;
51224;SDS011;37298;42.688;23.312;2022-12-16T10:23:17;69.00;;;42.47;;
51224;SDS011;37298;42.688;23.312;2022-12-16T10:26:04;61.28;;;42.63;;
51224;SDS011;37298;42.688;23.312;2022-12-16T10:28:51;64.07;;;40.78;;
51224;SDS011;37298;42.688;23.312;2022-12-16T10:31:36;60.83;;;40.38;;
51224;SDS011;37298;42.688;23.312;2022-12-16T10:34:24;57.58;;;39.15;;
51224;SDS011;37298;42.688;23.312;2022-12-16T10:37:09;59.58;;;41.42;;
51224;SDS011;37298;42.688;23.312;2022-12-16T10:40:03;56.13;;;40.20;;
51224;SDS011;37298;42.688;23.312;2022-12-16T10:42:49;54.95;;;39.58;;
51224;SDS011;37298;42.688;23.312;2022-12-16T10:45:34;56.38;;;39.15;;
51224;SDS011;37298;42.688;23.312;2022-12-16T10:48:23;56.17;;;39.53;;
51224;SDS011;37298;42.688;23.312;2022-12-16T10:51:10;55.03;;;39.08;;
51224;SDS011;37298;42.688;23.312;2022-12-16T10:53:55;53.65;;;37.05;;
51224;SDS011;37298;42.688;23.312;2022-12-16T10:56:48;53.08;;;37.85;;
51224;SDS011;37298;42.688;23.312;2022-12-16T10:59:35;55.28;;;39.60;;
51224;SDS011;37298;42.688;23.312;2022-12-16T11:02:20;52.63;;;38.10;;
51224;SDS011;37298;42.688;23.312;2022-12-16T11:08:08;66.82;;;45.30;;
51224;SDS011;37298;42.688;23.312;2022-12-16T11:11:06;55.88;;;40.60;;
51224;SDS011;37298;42.688;23.312;2022-12-16T11:14:02;54.63;;;37.92;;
51224;SDS011;37298;42.688;23.312;2022-12-16T11:16:59;43.13;;;33.72;;
51224;SDS011;37298;42.688;23.312;2022-12-16T11:20:03;43.33;;;33.28;;
51224;SDS011;37298;42.688;23.312;2022-12-16T11:22:52;40.22;;;33.30;;
51224;SDS011;37298;42.688;23.312;2022-12-16T11:26:01;45.05;;;33.22;;
51224;SDS011;37298;42.688;23.312;2022-12-16T11:28:47;48.03;;;33.08;;
51224;SDS011;37298;42.688;23.312;2022-12-16T11:31:44;41.03;;;30.58;;
51224;SDS011;37298;42.688;23.312;2022-12-16T11:34:26;44.97;;;33.60;;
51224;SDS011;37298;42.688;23.312;2022-12-16T11:37:10;34.97;;;29.38;;
51224;SDS011;37298;42.688;23.312;2022-12-16T11:40:09;37.42;;;26.23;;
51224;SDS011;37298;42.688;23.312;2022-12-16T11:42:57;34.92;;;27.08;;
51224;SDS011;37298;42.688;23.312;2022-12-16T11:45:41;34.67;;;26.63;;
51224;SDS011;37298;42.688;23.312;2022-12-16T11:48:28;33.60;;;25.73;;
51224;SDS011;37298;42.688;23.312;2022-12-16T11:51:14;30.20;;;24.75;;
51224;SDS011;37298;42.688;23.312;2022-12-16T11:54:00;32.47;;;25.35;;
51224;SDS011;37298;42.688;23.312;2022-12-16T11:56:45;40.85;;;28.20;;
51224;SDS011;37298;42.688;23.312;2022-12-16T11:59:32;35.15;;;27.92;;
51224;SDS011;37298;42.688;23.312;2022-12-16T12:02:19;36.88;;;28.52;;
51224;SDS011;37298;42.688;23.312;2022-12-16T12:05:04;37.20;;;27.02;;
51224;SDS011;37298;42.688;23.312;2022-12-16T12:07:52;31.17;;;26.35;;
51224;SDS011;37298;42.688;23.312;2022-12-16T12:10:47;29.70;;;24.30;;
51224;SDS011;37298;42.688;23.312;2022-12-16T12:13:39;36.72;;;26.17;;
51224;SDS011;37298;42.688;23.312;2022-12-16T12:16:28;33.90;;;25.15;;
51224;SDS011;37298;42.688;23.312;2022-12-16T12:19:16;32.65;;;24.50;;
51224;SDS011;37298;42.688;23.312;2022-12-16T12:22:01;36.95;;;26.35;;
51224;SDS011;37298;42.688;23.312;2022-12-16T12:24:48;33.60;;;26.17;;
51224;SDS011;37298;42.688;23.312;2022-12-16T12:30:20;35.05;;;26.10;;
51224;SDS011;37298;42.688;23.312;2022-12-16T12:33:15;35.28;;;25.52;;
51224;SDS011;37298;42.688;23.312;2022-12-16T12:36:03;36.20;;;26.13;;
51224;SDS011;37298;42.688;23.312;2022-12-16T12:38:55;36.80;;;27.23;;
51224;SDS011;37298;42.688;23.312;2022-12-16T12:41:47;32.97;;;26.15;;
51224;SDS011;37298;42.688;23.312;2022-12-16T12:44:36;35.83;;;27.73;;
51224;SDS011;37298;42.688;23.312;2022-12-16T12:47:24;44.85;;;28.17;;
51224;SDS011;37298;42.688;23.312;2022-12-16T12:50:12;57.70;;;32.47;;
51224;SDS011;37298;42.688;23.312;2022-12-16T12:53:03;38.45;;;26.08;;
51224;SDS011;37298;42.688;23.312;2022-12-16T12:55:52;36.60;;;27.67;;
51224;SDS011;37298;42.688;23.312;2022-12-16T12:58:40;41.38;;;27.88;;
51224;SDS011;37298;42.688;23.312;2022-12-16T13:01:25;35.75;;;26.42;;
51224;SDS011;37298;42.688;23.312;2022-12-16T13:04:12;38.65;;;28.45;;
51224;SDS011;37298;42.688;23.312;2022-12-16T13:06:59;38.33;;;26.27;;
51224;SDS011;37298;42.688;23.312;2022-12-16T13:09:43;39.85;;;26.33;;
51224;SDS011;37298;42.688;23.312;2022-12-16T13:12:28;37.80;;;26.15;;
51224;SDS011;37298;42.688;23.312;2022-12-16T13:15:20;42.42;;;26.63;;
51224;SDS011;37298;42.688;23.312;2022-12-16T13:18:25;37.45;;;26.45;;
51224;SDS011;37298;42.688;23.312;2022-12-16T13:24:20;36.50;;;26.75;;
51224;SDS011;37298;42.688;23.312;2022-12-16T13:27:12;36.05;;;26.30;;
51224;SDS011;37298;42.688;23.312;2022-12-16T13:30:01;37.72;;;27.60;;
51224;SDS011;37298;42.688;23.312;2022-12-16T13:32:54;43.20;;;28.08;;
51224;SDS011;37298;42.688;23.312;2022-12-16T13:35:50;34.33;;;24.70;;
51224;SDS011;37298;42.688;23.312;2022-12-16T13:38:35;36.20;;;25.02;;
51224;SDS011;37298;42.688;23.312;2022-12-16T13:47:30;40.35;;;26.27;;
51224;SDS011;37298;42.688;23.312;2022-12-16T13:53:18;37.85;;;23.67;;
51224;SDS011;37298;42.688;23.312;2022-12-16T13:56:04;36.92;;;24.95;;
51224;SDS011;37298;42.688;23.312;2022-12-16T13:58:49;40.03;;;25.27;;
51224;SDS011;37298;42.688;23.312;2022-12-16T14:01:35;37.30;;;24.33;;
51224;SDS011;37298;42.688;23.312;2022-12-16T14:04:25;36.47;;;24.33;;
51224;SDS011;37298;42.688;23.312;2022-12-16T14:07:09;40.60;;;25.92;;
51224;SDS011;37298;42.688;23.312;2022-12-16T14:09:54;35.80;;;24.23;;
51224;SDS011;37298;42.688;23.312;2022-12-16T14:12:43;42.42;;;26.30;;
51224;SDS011;37298;42.688;23.312;2022-12-16T14:15:30;40.70;;;27.30;;
51224;SDS011;37298;42.688;23.312;2022-12-16T14:18:21;47.65;;;27.98;;
51224;SDS011;37298;42.688;23.312;2022-12-16T14:21:10;49.75;;;28.75;;
51224;SDS011;37298;42.688;23.312;2022-12-16T14:23:57;44.85;;;28.65;;
51224;SDS011;37298;42.688;23.312;2022-12-16T14:26:55;42.88;;;27.73;;
51224;SDS011;37298;42.688;23.312;2022-12-16T14:29:41;47.35;;;28.42;;
51224;SDS011;37298;42.688;23.312;2022-12-16T14:32:26;48.20;;;29.23;;
51224;SDS011;37298;42.688;23.312;2022-12-16T14:35:11;51.97;;;30.98;;
51224;SDS011;37298;42.688;23.312;2022-12-16T14:37:58;61.58;;;35.05;;
51224;SDS011;37298;42.688;23.312;2022-12-16T14:40:55;64.53;;;35.55;;
51224;SDS011;37298;42.688;23.312;2022-12-16T14:43:42;60.60;;;32.88;;
51224;SDS011;37298;42.688;23.312;2022-12-16T14:46:27;55.25;;;31.52;;
51224;SDS011;37298;42.688;23.312;2022-12-16T14:49:14;62.90;;;32.13;;
51224;SDS011;37298;42.688;23.312;2022-12-16T14:52:00;51.35;;;30.80;;
51224;SDS011;37298;42.688;23.312;2022-12-16T14:54:46;58.35;;;31.80;;
51224;SDS011;37298;42.688;23.312;2022-12-16T14:57:31;52.45;;;30.75;;
51224;SDS011;37298;42.688;23.312;2022-12-16T15:00:16;52.42;;;29.67;;
51224;SDS011;37298;42.688;23.312;2022-12-16T15:03:02;46.13;;;27.67;;
51224;SDS011;37298;42.688;23.312;2022-12-16T15:05:47;51.90;;;29.77;;
51224;SDS011;37298;42.688;23.312;2022-12-16T15:08:33;47.28;;;28.13;;
51224;SDS011;37298;42.688;23.312;2022-12-16T15:11:20;56.65;;;29.15;;
51224;SDS011;37298;42.688;23.312;2022-12-16T15:14:06;44.97;;;28.55;;
51224;SDS011;37298;42.688;23.312;2022-12-16T15:16:52;55.28;;;30.58;;
51224;SDS011;37298;42.688;23.312;2022-12-16T15:19:38;54.95;;;29.17;;
51224;SDS011;37298;42.688;23.312;2022-12-16T15:22:24;44.05;;;27.08;;
51224;SDS011;37298;42.688;23.312;2022-12-16T15:25:15;41.63;;;25.30;;
51224;SDS011;37298;42.688;23.312;2022-12-16T15:28:02;52.35;;;27.42;;
51224;SDS011;37298;42.688;23.312;2022-12-16T15:31:01;51.95;;;26.55;;
51224;SDS011;37298;42.688;23.312;2022-12-16T15:34:15;47.63;;;27.00;;
51224;SDS011;37298;42.688;23.312;2022-12-16T15:37:00;53.15;;;27.83;;
51224;SDS011;37298;42.688;23.312;2022-12-16T15:39:45;46.60;;;26.40;;
51224;SDS011;37298;42.688;23.312;2022-12-16T15:42:32;41.28;;;24.00;;
51224;SDS011;37298;42.688;23.312;2022-12-16T15:45:19;42.10;;;25.90;;
51224;SDS011;37298;42.688;23.312;2022-12-16T15:48:08;56.00;;;26.15;;
51224;SDS011;37298;42.688;23.312;2022-12-16T15:50:54;47.70;;;26.58;;
51224;SDS011;37298;42.688;23.312;2022-12-16T15:53:39;49.80;;;27.42;;
51224;SDS011;37298;42.688;23.312;2022-12-16T15:56:23;48.10;;;28.40;;